sensor_id;sensor_type;location;lat;lon;timestamp;temperature;humidity
24252;DHT22;12380;51.118;4.176;2022-09-09T00:02:22;15.30;99.90
24252;DHT22;12380;51.118;4.176;2022-09-09T00:09:53;15.30;99.90
24252;DHT22;12380;51.118;4.176;2022-09-09T00:15:30;15.20;99.90
24252;DHT22;12380;51.118;4.176;2022-09-09T00:21:01;15.10;99.90
24252;DHT22;12380;51.118;4.176;2022-09-09T00:23:32;15.10;99.90
24252;DHT22;12380;51.118;4.176;2022-09-09T00:26:09;15.20;99.90
24252;DHT22;12380;51.118;4.176;2022-09-09T00:28:48;15.10;99.90
24252;DHT22;12380;51.118;4.176;2022-09-09T00:31:17;15.00;99.90
24252;DHT22;12380;51.118;4.176;2022-09-09T00:33:44;15.00;99.90
24252;DHT22;12380;51.118;4.176;2022-09-09T00:36:13;15.00;99.90
24252;DHT22;12380;51.118;4.176;2022-09-09T00:38:41;15.00;99.90
24252;DHT22;12380;51.118;4.176;2022-09-09T00:41:10;15.00;99.90
24252;DHT22;12380;51.118;4.176;2022-09-09T00:43:38;14.90;99.90
24252;DHT22;12380;51.118;4.176;2022-09-09T00:46:14;15.00;99.90
24252;DHT22;12380;51.118;4.176;2022-09-09T00:51:17;15.10;99.90
24252;DHT22;12380;51.118;4.176;2022-09-09T00:56:21;15.10;99.90
24252;DHT22;12380;51.118;4.176;2022-09-09T00:59:01;15.10;99.90
24252;DHT22;12380;51.118;4.176;2022-09-09T01:01:29;15.10;99.90
24252;DHT22;12380;51.118;4.176;2022-09-09T01:03:55;15.00;99.90
24252;DHT22;12380;51.118;4.176;2022-09-09T01:06:29;14.90;99.90
24252;DHT22;12380;51.118;4.176;2022-09-09T01:11:25;15.10;99.90
24252;DHT22;12380;51.118;4.176;2022-09-09T01:16:50;15.00;99.90
24252;DHT22;12380;51.118;4.176;2022-09-09T01:19:20;14.80;99.90
24252;DHT22;12380;51.118;4.176;2022-09-09T01:24:22;14.80;99.90
24252;DHT22;12380;51.118;4.176;2022-09-09T01:26:52;14.80;99.90
24252;DHT22;12380;51.118;4.176;2022-09-09T01:29:20;14.80;99.90
24252;DHT22;12380;51.118;4.176;2022-09-09T01:34:19;14.90;99.90
24252;DHT22;12380;51.118;4.176;2022-09-09T01:39:16;14.80;99.90
24252;DHT22;12380;51.118;4.176;2022-09-09T01:41:52;14.80;99.90
24252;DHT22;12380;51.118;4.176;2022-09-09T01:44:18;14.80;99.90
24252;DHT22;12380;51.118;4.176;2022-09-09T01:46:44;14.80;99.90
24252;DHT22;12380;51.118;4.176;2022-09-09T01:49:10;14.90;99.90
24252;DHT22;12380;51.118;4.176;2022-09-09T01:51:37;14.80;99.90
24252;DHT22;12380;51.118;4.176;2022-09-09T01:54:06;14.80;99.90
24252;DHT22;12380;51.118;4.176;2022-09-09T01:59:03;15.00;99.90
24252;DHT22;12380;51.118;4.176;2022-09-09T02:01:38;14.90;99.90
24252;DHT22;12380;51.118;4.176;2022-09-09T02:04:18;15.00;99.90
24252;DHT22;12380;51.118;4.176;2022-09-09T02:06:48;14.80;99.90
24252;DHT22;12380;51.118;4.176;2022-09-09T02:09:17;14.90;99.90
24252;DHT22;12380;51.118;4.176;2022-09-09T02:11:44;15.00;99.90
24252;DHT22;12380;51.118;4.176;2022-09-09T02:14:14;14.90;99.90
24252;DHT22;12380;51.118;4.176;2022-09-09T02:16:47;14.90;99.90
24252;DHT22;12380;51.118;4.176;2022-09-09T02:19:15;15.00;99.90
24252;DHT22;12380;51.118;4.176;2022-09-09T02:21:46;15.00;99.90
24252;DHT22;12380;51.118;4.176;2022-09-09T02:24:13;15.20;99.90
24252;DHT22;12380;51.118;4.176;2022-09-09T02:26:40;14.90;99.90
24252;DHT22;12380;51.118;4.176;2022-09-09T02:29:12;15.00;99.90
24252;DHT22;12380;51.118;4.176;2022-09-09T02:31:39;15.10;99.90
24252;DHT22;12380;51.118;4.176;2022-09-09T02:34:08;15.00;99.90
24252;DHT22;12380;51.118;4.176;2022-09-09T02:36:36;15.00;99.90
24252;DHT22;12380;51.118;4.176;2022-09-09T02:39:02;15.00;99.90
24252;DHT22;12380;51.118;4.176;2022-09-09T02:41:33;15.00;99.90
24252;DHT22;12380;51.118;4.176;2022-09-09T02:43:59;15.00;99.90
24252;DHT22;12380;51.118;4.176;2022-09-09T02:54:49;14.90;99.90
24252;DHT22;12380;51.118;4.176;2022-09-09T02:57:28;15.00;99.90
24252;DHT22;12380;51.118;4.176;2022-09-09T02:59:57;15.00;99.90
24252;DHT22;12380;51.118;4.176;2022-09-09T03:02:23;14.90;99.90
24252;DHT22;12380;51.118;4.176;2022-09-09T03:04:51;14.80;99.90
24252;DHT22;12380;51.118;4.176;2022-09-09T03:07:20;14.90;99.90
24252;DHT22;12380;51.118;4.176;2022-09-09T03:09:47;14.90;99.90
24252;DHT22;12380;51.118;4.176;2022-09-09T03:12:13;15.00;99.90
24252;DHT22;12380;51.118;4.176;2022-09-09T03:14:39;14.90;99.90
24252;DHT22;12380;51.118;4.176;2022-09-09T03:17:05;15.00;99.90
24252;DHT22;12380;51.118;4.176;2022-09-09T03:19:31;14.90;99.90
24252;DHT22;12380;51.118;4.176;2022-09-09T03:21:58;14.90;99.90
24252;DHT22;12380;51.118;4.176;2022-09-09T03:24:24;14.80;99.90
24252;DHT22;12380;51.118;4.176;2022-09-09T03:26:50;14.90;99.90
24252;DHT22;12380;51.118;4.176;2022-09-09T03:29:16;14.90;99.90
24252;DHT22;12380;51.118;4.176;2022-09-09T03:31:43;14.90;99.90
24252;DHT22;12380;51.118;4.176;2022-09-09T03:34:08;15.00;99.90
24252;DHT22;12380;51.118;4.176;2022-09-09T03:36:34;15.00;99.90
24252;DHT22;12380;51.118;4.176;2022-09-09T03:39:01;15.00;99.90
24252;DHT22;12380;51.118;4.176;2022-09-09T03:41:28;14.90;99.90
24252;DHT22;12380;51.118;4.176;2022-09-09T03:43:54;15.00;99.90
24252;DHT22;12380;51.118;4.176;2022-09-09T03:46:21;15.00;99.90
24252;DHT22;12380;51.118;4.176;2022-09-09T03:48:47;14.90;99.90
24252;DHT22;12380;51.118;4.176;2022-09-09T03:51:13;14.90;99.90
24252;DHT22;12380;51.118;4.176;2022-09-09T03:53:38;14.80;99.90
24252;DHT22;12380;51.118;4.176;2022-09-09T03:56:07;14.80;99.90
24252;DHT22;12380;51.118;4.176;2022-09-09T03:58:33;14.90;99.90
24252;DHT22;12380;51.118;4.176;2022-09-09T04:03:25;14.90;99.90
24252;DHT22;12380;51.118;4.176;2022-09-09T04:05:51;14.90;99.90
24252;DHT22;12380;51.118;4.176;2022-09-09T04:08:18;14.90;99.90
24252;DHT22;12380;51.118;4.176;2022-09-09T04:10:47;14.90;99.90
24252;DHT22;12380;51.118;4.176;2022-09-09T04:13:14;14.80;99.90
24252;DHT22;12380;51.118;4.176;2022-09-09T04:15:40;14.90;99.90
24252;DHT22;12380;51.118;4.176;2022-09-09T04:18:06;14.90;99.90
24252;DHT22;12380;51.118;4.176;2022-09-09T04:20:32;14.80;99.90
24252;DHT22;12380;51.118;4.176;2022-09-09T04:22:58;14.90;99.90
24252;DHT22;12380;51.118;4.176;2022-09-09T04:25:23;14.90;99.90
24252;DHT22;12380;51.118;4.176;2022-09-09T04:27:53;14.90;99.90
24252;DHT22;12380;51.118;4.176;2022-09-09T04:30:19;14.90;99.90
24252;DHT22;12380;51.118;4.176;2022-09-09T04:32:45;14.90;99.90
24252;DHT22;12380;51.118;4.176;2022-09-09T04:35:10;14.90;99.90
24252;DHT22;12380;51.118;4.176;2022-09-09T04:37:36;14.90;99.90
24252;DHT22;12380;51.118;4.176;2022-09-09T04:40:01;15.00;99.90
24252;DHT22;12380;51.118;4.176;2022-09-09T04:42:27;15.00;99.90
24252;DHT22;12380;51.118;4.176;2022-09-09T04:44:53;14.90;99.90
24252;DHT22;12380;51.118;4.176;2022-09-09T04:47:19;14.80;99.90
24252;DHT22;12380;51.118;4.176;2022-09-09T04:49:45;14.90;99.90
24252;DHT22;12380;51.118;4.176;2022-09-09T04:52:11;15.00;99.90
24252;DHT22;12380;51.118;4.176;2022-09-09T04:54:42;14.90;99.90
24252;DHT22;12380;51.118;4.176;2022-09-09T04:57:10;15.00;99.90
24252;DHT22;12380;51.118;4.176;2022-09-09T04:59:36;14.90;99.90
24252;DHT22;12380;51.118;4.176;2022-09-09T05:02:01;15.00;99.90
24252;DHT22;12380;51.118;4.176;2022-09-09T05:04:29;15.00;99.90
24252;DHT22;12380;51.118;4.176;2022-09-09T05:06:55;14.90;99.90
24252;DHT22;12380;51.118;4.176;2022-09-09T05:09:21;15.00;99.90
24252;DHT22;12380;51.118;4.176;2022-09-09T05:11:47;15.00;99.90
24252;DHT22;12380;51.118;4.176;2022-09-09T05:14:13;15.10;99.90
24252;DHT22;12380;51.118;4.176;2022-09-09T05:16:40;15.10;99.90
24252;DHT22;12380;51.118;4.176;2022-09-09T05:19:06;15.10;99.90
24252;DHT22;12380;51.118;4.176;2022-09-09T05:21:33;15.10;99.90
24252;DHT22;12380;51.118;4.176;2022-09-09T05:23:59;15.10;99.90
24252;DHT22;12380;51.118;4.176;2022-09-09T05:26:25;15.20;99.90
24252;DHT22;12380;51.118;4.176;2022-09-09T05:28:51;15.20;99.90
24252;DHT22;12380;51.118;4.176;2022-09-09T05:31:18;15.20;99.90
24252;DHT22;12380;51.118;4.176;2022-09-09T05:33:45;15.30;99.90
24252;DHT22;12380;51.118;4.176;2022-09-09T05:36:12;15.40;99.90
24252;DHT22;12380;51.118;4.176;2022-09-09T05:38:41;15.30;99.90
24252;DHT22;12380;51.118;4.176;2022-09-09T05:41:14;15.30;99.90
24252;DHT22;12380;51.118;4.176;2022-09-09T05:43:43;15.40;99.90
24252;DHT22;12380;51.118;4.176;2022-09-09T05:46:13;15.40;99.90
24252;DHT22;12380;51.118;4.176;2022-09-09T05:48:43;15.40;99.90
24252;DHT22;12380;51.118;4.176;2022-09-09T05:51:10;15.40;99.90
24252;DHT22;12380;51.118;4.176;2022-09-09T05:53:37;15.30;99.90
24252;DHT22;12380;51.118;4.176;2022-09-09T05:56:12;15.40;99.90
24252;DHT22;12380;51.118;4.176;2022-09-09T05:58:42;15.40;99.90
24252;DHT22;12380;51.118;4.176;2022-09-09T06:01:17;15.40;99.90
24252;DHT22;12380;51.118;4.176;2022-09-09T06:03:46;15.40;99.90
24252;DHT22;12380;51.118;4.176;2022-09-09T06:06:13;15.50;99.90
24252;DHT22;12380;51.118;4.176;2022-09-09T06:08:40;15.60;99.90
24252;DHT22;12380;51.118;4.176;2022-09-09T06:11:07;15.60;99.90
24252;DHT22;12380;51.118;4.176;2022-09-09T06:13:33;15.50;99.90
24252;DHT22;12380;51.118;4.176;2022-09-09T06:16:00;15.50;99.90
24252;DHT22;12380;51.118;4.176;2022-09-09T06:18:29;15.50;99.90
24252;DHT22;12380;51.118;4.176;2022-09-09T06:20:56;15.60;99.90
24252;DHT22;12380;51.118;4.176;2022-09-09T06:23:22;15.60;99.90
24252;DHT22;12380;51.118;4.176;2022-09-09T06:25:50;15.50;99.90
24252;DHT22;12380;51.118;4.176;2022-09-09T06:28:16;15.60;99.90
24252;DHT22;12380;51.118;4.176;2022-09-09T06:30:42;15.60;99.90
24252;DHT22;12380;51.118;4.176;2022-09-09T06:33:08;15.70;99.90
24252;DHT22;12380;51.118;4.176;2022-09-09T06:35:34;15.70;99.90
24252;DHT22;12380;51.118;4.176;2022-09-09T06:38:00;15.80;99.90
24252;DHT22;12380;51.118;4.176;2022-09-09T06:40:26;15.80;99.90
24252;DHT22;12380;51.118;4.176;2022-09-09T06:42:51;15.90;99.90
24252;DHT22;12380;51.118;4.176;2022-09-09T06:45:17;15.80;99.90
24252;DHT22;12380;51.118;4.176;2022-09-09T06:47:43;15.90;99.90
24252;DHT22;12380;51.118;4.176;2022-09-09T06:50:11;15.90;99.90
24252;DHT22;12380;51.118;4.176;2022-09-09T06:52:37;16.00;99.90
24252;DHT22;12380;51.118;4.176;2022-09-09T06:55:03;16.00;99.90
24252;DHT22;12380;51.118;4.176;2022-09-09T06:57:29;16.00;99.90
24252;DHT22;12380;51.118;4.176;2022-09-09T06:59:57;16.00;99.90
24252;DHT22;12380;51.118;4.176;2022-09-09T07:02:22;16.00;99.90
24252;DHT22;12380;51.118;4.176;2022-09-09T07:04:49;16.00;99.90
24252;DHT22;12380;51.118;4.176;2022-09-09T07:07:16;16.00;99.90
24252;DHT22;12380;51.118;4.176;2022-09-09T07:09:43;16.00;99.90
24252;DHT22;12380;51.118;4.176;2022-09-09T07:12:11;15.90;99.90
24252;DHT22;12380;51.118;4.176;2022-09-09T07:14:37;15.90;99.90
24252;DHT22;12380;51.118;4.176;2022-09-09T07:17:03;15.90;99.90
24252;DHT22;12380;51.118;4.176;2022-09-09T07:19:28;16.00;99.90
24252;DHT22;12380;51.118;4.176;2022-09-09T07:21:54;16.10;99.90
24252;DHT22;12380;51.118;4.176;2022-09-09T07:24:20;16.20;99.90
24252;DHT22;12380;51.118;4.176;2022-09-09T07:26:45;16.20;99.90
24252;DHT22;12380;51.118;4.176;2022-09-09T07:29:11;16.20;99.90
24252;DHT22;12380;51.118;4.176;2022-09-09T07:31:39;16.10;99.90
24252;DHT22;12380;51.118;4.176;2022-09-09T07:34:05;16.20;99.90
24252;DHT22;12380;51.118;4.176;2022-09-09T07:36:32;16.30;99.90
24252;DHT22;12380;51.118;4.176;2022-09-09T07:38:59;16.40;99.90
24252;DHT22;12380;51.118;4.176;2022-09-09T07:41:35;16.40;99.90
24252;DHT22;12380;51.118;4.176;2022-09-09T07:44:09;16.50;99.90
24252;DHT22;12380;51.118;4.176;2022-09-09T07:46:36;16.50;99.90
24252;DHT22;12380;51.118;4.176;2022-09-09T07:49:02;16.60;99.90
24252;DHT22;12380;51.118;4.176;2022-09-09T07:51:29;16.50;99.90
24252;DHT22;12380;51.118;4.176;2022-09-09T07:53:56;16.50;99.90
24252;DHT22;12380;51.118;4.176;2022-09-09T07:56:23;16.60;99.90
24252;DHT22;12380;51.118;4.176;2022-09-09T07:58:49;16.50;99.90
24252;DHT22;12380;51.118;4.176;2022-09-09T08:01:20;16.40;99.90
24252;DHT22;12380;51.118;4.176;2022-09-09T08:03:47;16.60;99.90
24252;DHT22;12380;51.118;4.176;2022-09-09T08:06:17;16.70;99.90
24252;DHT22;12380;51.118;4.176;2022-09-09T08:14:49;16.90;99.90
24252;DHT22;12380;51.118;4.176;2022-09-09T08:17:16;16.80;99.90
24252;DHT22;12380;51.118;4.176;2022-09-09T08:19:42;17.20;99.90
24252;DHT22;12380;51.118;4.176;2022-09-09T08:22:09;17.20;99.90
24252;DHT22;12380;51.118;4.176;2022-09-09T08:24:35;17.20;99.90
24252;DHT22;12380;51.118;4.176;2022-09-09T08:27:01;17.10;99.90
24252;DHT22;12380;51.118;4.176;2022-09-09T08:29:27;17.10;99.90
24252;DHT22;12380;51.118;4.176;2022-09-09T08:31:55;17.10;99.90
24252;DHT22;12380;51.118;4.176;2022-09-09T08:34:22;17.20;99.90
24252;DHT22;12380;51.118;4.176;2022-09-09T08:36:49;17.30;99.90
24252;DHT22;12380;51.118;4.176;2022-09-09T08:39:16;17.30;99.90
24252;DHT22;12380;51.118;4.176;2022-09-09T08:44:17;17.20;99.90
24252;DHT22;12380;51.118;4.176;2022-09-09T08:49:57;16.80;99.90
24252;DHT22;12380;51.118;4.176;2022-09-09T08:52:06;16.80;99.90
24252;DHT22;12380;51.118;4.176;2022-09-09T08:54:35;16.80;99.90
24252;DHT22;12380;51.118;4.176;2022-09-09T08:57:02;16.60;99.90
24252;DHT22;12380;51.118;4.176;2022-09-09T08:59:29;16.60;99.90
24252;DHT22;12380;51.118;4.176;2022-09-09T09:01:57;16.50;99.90
24252;DHT22;12380;51.118;4.176;2022-09-09T09:09:24;16.60;99.90
24252;DHT22;12380;51.118;4.176;2022-09-09T09:14:23;16.50;99.90
24252;DHT22;12380;51.118;4.176;2022-09-09T09:17:02;16.40;99.90
24252;DHT22;12380;51.118;4.176;2022-09-09T09:19:29;16.40;99.90
24252;DHT22;12380;51.118;4.176;2022-09-09T09:24:51;16.60;99.90
24252;DHT22;12380;51.118;4.176;2022-09-09T09:27:35;16.50;99.90
24252;DHT22;12380;51.118;4.176;2022-09-09T09:30:14;16.60;99.90
24252;DHT22;12380;51.118;4.176;2022-09-09T09:32:40;16.60;99.90
24252;DHT22;12380;51.118;4.176;2022-09-09T09:35:14;16.70;99.90
24252;DHT22;12380;51.118;4.176;2022-09-09T09:37:41;16.80;99.90
24252;DHT22;12380;51.118;4.176;2022-09-09T09:40:16;16.60;99.90
24252;DHT22;12380;51.118;4.176;2022-09-09T09:42:53;16.60;99.90
24252;DHT22;12380;51.118;4.176;2022-09-09T09:45:29;16.60;99.90
24252;DHT22;12380;51.118;4.176;2022-09-09T09:47:59;16.70;99.90
24252;DHT22;12380;51.118;4.176;2022-09-09T09:50:25;16.60;99.90
24252;DHT22;12380;51.118;4.176;2022-09-09T09:52:55;16.70;99.90
24252;DHT22;12380;51.118;4.176;2022-09-09T09:55:22;16.70;99.90
24252;DHT22;12380;51.118;4.176;2022-09-09T09:57:49;16.80;99.90
24252;DHT22;12380;51.118;4.176;2022-09-09T10:00:16;17.00;99.90
24252;DHT22;12380;51.118;4.176;2022-09-09T10:02:43;17.10;99.90
24252;DHT22;12380;51.118;4.176;2022-09-09T10:05:13;17.00;99.90
24252;DHT22;12380;51.118;4.176;2022-09-09T10:07:39;17.00;99.90
24252;DHT22;12380;51.118;4.176;2022-09-09T10:10:12;16.90;99.90
24252;DHT22;12380;51.118;4.176;2022-09-09T10:15:31;17.10;99.90
24252;DHT22;12380;51.118;4.176;2022-09-09T10:20:42;17.20;99.90
24252;DHT22;12380;51.118;4.176;2022-09-09T10:23:15;17.20;99.90
24252;DHT22;12380;51.118;4.176;2022-09-09T10:28:51;17.20;99.90
24252;DHT22;12380;51.118;4.176;2022-09-09T10:34:05;17.20;99.90
24252;DHT22;12380;51.118;4.176;2022-09-09T10:36:40;17.20;99.90
24252;DHT22;12380;51.118;4.176;2022-09-09T10:41:56;17.30;99.90
24252;DHT22;12380;51.118;4.176;2022-09-09T10:47:20;17.30;99.90
24252;DHT22;12380;51.118;4.176;2022-09-09T10:55:16;17.30;99.90
24252;DHT22;12380;51.118;4.176;2022-09-09T11:00:19;17.40;99.90
24252;DHT22;12380;51.118;4.176;2022-09-09T11:02:47;17.50;99.90
24252;DHT22;12380;51.118;4.176;2022-09-09T11:05:16;17.50;99.90
24252;DHT22;12380;51.118;4.176;2022-09-09T11:07:57;17.50;99.90
24252;DHT22;12380;51.118;4.176;2022-09-09T11:12:59;17.70;99.90
24252;DHT22;12380;51.118;4.176;2022-09-09T11:15:35;17.80;99.90
24252;DHT22;12380;51.118;4.176;2022-09-09T11:18:05;17.70;99.90
24252;DHT22;12380;51.118;4.176;2022-09-09T11:20:32;17.70;99.90
24252;DHT22;12380;51.118;4.176;2022-09-09T11:22:59;17.80;99.90
24252;DHT22;12380;51.118;4.176;2022-09-09T11:25:39;17.90;99.90
24252;DHT22;12380;51.118;4.176;2022-09-09T11:28:09;18.00;99.90
24252;DHT22;12380;51.118;4.176;2022-09-09T11:41:05;18.60;99.90
24252;DHT22;12380;51.118;4.176;2022-09-09T11:45:59;18.70;99.90
24252;DHT22;12380;51.118;4.176;2022-09-09T11:53:48;18.50;99.90
24252;DHT22;12380;51.118;4.176;2022-09-09T11:56:24;18.50;99.90
24252;DHT22;12380;51.118;4.176;2022-09-09T11:58:54;18.50;99.90
24252;DHT22;12380;51.118;4.176;2022-09-09T12:04:11;18.60;99.90
24252;DHT22;12380;51.118;4.176;2022-09-09T12:06:46;18.80;99.90
24252;DHT22;12380;51.118;4.176;2022-09-09T12:11:50;19.00;99.90
24252;DHT22;12380;51.118;4.176;2022-09-09T12:14:22;19.20;99.90
24252;DHT22;12380;51.118;4.176;2022-09-09T12:16:48;19.20;99.90
24252;DHT22;12380;51.118;4.176;2022-09-09T12:19:15;19.40;99.90
24252;DHT22;12380;51.118;4.176;2022-09-09T12:24:43;19.40;99.90
24252;DHT22;12380;51.118;4.176;2022-09-09T12:29:51;18.90;99.90
24252;DHT22;12380;51.118;4.176;2022-09-09T12:32:23;18.90;99.90
24252;DHT22;12380;51.118;4.176;2022-09-09T12:37:17;18.80;99.90
24252;DHT22;12380;51.118;4.176;2022-09-09T12:39:57;18.90;99.90
24252;DHT22;12380;51.118;4.176;2022-09-09T12:42:23;18.90;99.90
24252;DHT22;12380;51.118;4.176;2022-09-09T12:47:46;19.60;99.90
24252;DHT22;12380;51.118;4.176;2022-09-09T12:53:09;19.60;99.90
24252;DHT22;12380;51.118;4.176;2022-09-09T12:55:37;20.00;99.90
24252;DHT22;12380;51.118;4.176;2022-09-09T12:58:03;20.10;99.90
24252;DHT22;12380;51.118;4.176;2022-09-09T13:00:31;20.20;99.90
24252;DHT22;12380;51.118;4.176;2022-09-09T13:02:58;20.30;99.90
24252;DHT22;12380;51.118;4.176;2022-09-09T13:05:34;20.30;99.90
24252;DHT22;12380;51.118;4.176;2022-09-09T13:08:01;20.60;99.90
24252;DHT22;12380;51.118;4.176;2022-09-09T13:10:28;21.00;99.90
24252;DHT22;12380;51.118;4.176;2022-09-09T13:12:57;20.80;99.90
24252;DHT22;12380;51.118;4.176;2022-09-09T13:15:24;20.90;99.90
24252;DHT22;12380;51.118;4.176;2022-09-09T13:17:52;20.90;99.90
24252;DHT22;12380;51.118;4.176;2022-09-09T13:20:19;20.90;99.90
24252;DHT22;12380;51.118;4.176;2022-09-09T13:22:47;20.50;99.90
24252;DHT22;12380;51.118;4.176;2022-09-09T13:28:00;20.30;99.90
24252;DHT22;12380;51.118;4.176;2022-09-09T13:33:02;20.80;99.90
24252;DHT22;12380;51.118;4.176;2022-09-09T13:35:28;21.30;99.90
24252;DHT22;12380;51.118;4.176;2022-09-09T13:37:54;21.40;99.90
24252;DHT22;12380;51.118;4.176;2022-09-09T13:40:21;21.00;99.90
24252;DHT22;12380;51.118;4.176;2022-09-09T13:42:56;20.60;99.90
24252;DHT22;12380;51.118;4.176;2022-09-09T13:45:22;20.20;99.90
24252;DHT22;12380;51.118;4.176;2022-09-09T13:47:49;20.00;99.90
24252;DHT22;12380;51.118;4.176;2022-09-09T13:52:55;20.00;99.90
24252;DHT22;12380;51.118;4.176;2022-09-09T13:55:24;20.10;99.90
24252;DHT22;12380;51.118;4.176;2022-09-09T13:57:54;20.40;99.90
24252;DHT22;12380;51.118;4.176;2022-09-09T14:00:19;20.60;99.90
24252;DHT22;12380;51.118;4.176;2022-09-09T14:02:46;20.60;99.90
24252;DHT22;12380;51.118;4.176;2022-09-09T14:05:12;20.70;99.90
24252;DHT22;12380;51.118;4.176;2022-09-09T14:07:38;20.90;99.90
24252;DHT22;12380;51.118;4.176;2022-09-09T14:10:04;21.00;99.90
24252;DHT22;12380;51.118;4.176;2022-09-09T14:12:30;21.20;99.90
24252;DHT22;12380;51.118;4.176;2022-09-09T14:14:56;21.40;99.90
24252;DHT22;12380;51.118;4.176;2022-09-09T14:17:21;21.30;99.90
24252;DHT22;12380;51.118;4.176;2022-09-09T14:19:47;21.60;99.90
24252;DHT22;12380;51.118;4.176;2022-09-09T14:22:13;21.90;99.90
24252;DHT22;12380;51.118;4.176;2022-09-09T14:24:39;21.50;99.90
24252;DHT22;12380;51.118;4.176;2022-09-09T14:27:04;21.20;99.90
24252;DHT22;12380;51.118;4.176;2022-09-09T14:29:30;21.00;99.90
24252;DHT22;12380;51.118;4.176;2022-09-09T14:31:56;20.50;99.90
24252;DHT22;12380;51.118;4.176;2022-09-09T14:34:26;20.30;99.90
24252;DHT22;12380;51.118;4.176;2022-09-09T14:36:51;20.20;99.90
24252;DHT22;12380;51.118;4.176;2022-09-09T14:39:17;20.20;99.90
24252;DHT22;12380;51.118;4.176;2022-09-09T14:41:43;20.20;99.90
24252;DHT22;12380;51.118;4.176;2022-09-09T14:44:08;20.00;99.90
24252;DHT22;12380;51.118;4.176;2022-09-09T14:46:34;20.20;99.90
24252;DHT22;12380;51.118;4.176;2022-09-09T14:48:59;20.10;99.90
24252;DHT22;12380;51.118;4.176;2022-09-09T14:51:25;20.00;99.90
24252;DHT22;12380;51.118;4.176;2022-09-09T14:53:52;19.60;99.90
24252;DHT22;12380;51.118;4.176;2022-09-09T14:56:19;19.40;99.90
24252;DHT22;12380;51.118;4.176;2022-09-09T14:58:46;19.40;99.90
24252;DHT22;12380;51.118;4.176;2022-09-09T15:01:16;19.40;99.90
24252;DHT22;12380;51.118;4.176;2022-09-09T15:03:43;19.40;99.90
24252;DHT22;12380;51.118;4.176;2022-09-09T15:06:12;19.50;99.90
24252;DHT22;12380;51.118;4.176;2022-09-09T15:08:39;19.60;99.90
24252;DHT22;12380;51.118;4.176;2022-09-09T15:11:05;19.60;99.90
24252;DHT22;12380;51.118;4.176;2022-09-09T15:13:33;19.60;99.90
24252;DHT22;12380;51.118;4.176;2022-09-09T15:18:31;20.10;99.90
24252;DHT22;12380;51.118;4.176;2022-09-09T15:20:57;20.40;99.90
24252;DHT22;12380;51.118;4.176;2022-09-09T15:23:23;20.40;99.90
24252;DHT22;12380;51.118;4.176;2022-09-09T15:25:55;20.20;99.90
24252;DHT22;12380;51.118;4.176;2022-09-09T15:28:21;20.10;99.90
24252;DHT22;12380;51.118;4.176;2022-09-09T15:30:48;19.50;99.90
24252;DHT22;12380;51.118;4.176;2022-09-09T15:33:14;19.10;99.90
24252;DHT22;12380;51.118;4.176;2022-09-09T15:35:40;18.90;99.90
24252;DHT22;12380;51.118;4.176;2022-09-09T15:38:05;18.70;99.90
24252;DHT22;12380;51.118;4.176;2022-09-09T15:40:31;18.50;99.90
24252;DHT22;12380;51.118;4.176;2022-09-09T15:43:00;18.40;99.90
24252;DHT22;12380;51.118;4.176;2022-09-09T15:45:25;18.40;99.90
24252;DHT22;12380;51.118;4.176;2022-09-09T15:47:52;18.50;99.90
24252;DHT22;12380;51.118;4.176;2022-09-09T15:50:17;18.60;99.90
24252;DHT22;12380;51.118;4.176;2022-09-09T15:52:43;18.70;99.90
24252;DHT22;12380;51.118;4.176;2022-09-09T15:55:09;18.70;99.90
24252;DHT22;12380;51.118;4.176;2022-09-09T15:57:35;18.60;99.90
24252;DHT22;12380;51.118;4.176;2022-09-09T16:00:02;18.70;99.90
24252;DHT22;12380;51.118;4.176;2022-09-09T16:02:28;18.50;99.90
24252;DHT22;12380;51.118;4.176;2022-09-09T16:04:55;18.60;99.90
24252;DHT22;12380;51.118;4.176;2022-09-09T16:07:22;18.40;99.90
24252;DHT22;12380;51.118;4.176;2022-09-09T16:09:48;18.30;99.90
24252;DHT22;12380;51.118;4.176;2022-09-09T16:12:16;18.40;99.90
24252;DHT22;12380;51.118;4.176;2022-09-09T16:14:42;18.60;99.90
24252;DHT22;12380;51.118;4.176;2022-09-09T16:17:08;18.60;99.90
24252;DHT22;12380;51.118;4.176;2022-09-09T16:19:33;18.60;99.90
24252;DHT22;12380;51.118;4.176;2022-09-09T16:22:00;18.70;99.90
24252;DHT22;12380;51.118;4.176;2022-09-09T16:24:25;18.70;99.90
24252;DHT22;12380;51.118;4.176;2022-09-09T16:26:52;18.90;99.90
24252;DHT22;12380;51.118;4.176;2022-09-09T16:29:18;18.70;99.90
24252;DHT22;12380;51.118;4.176;2022-09-09T16:31:45;18.60;99.90
24252;DHT22;12380;51.118;4.176;2022-09-09T16:34:11;18.50;99.90
24252;DHT22;12380;51.118;4.176;2022-09-09T16:36:39;18.60;99.90
24252;DHT22;12380;51.118;4.176;2022-09-09T16:39:08;18.80;99.90
24252;DHT22;12380;51.118;4.176;2022-09-09T16:41:34;18.70;99.90
24252;DHT22;12380;51.118;4.176;2022-09-09T16:44:01;18.70;99.90
24252;DHT22;12380;51.118;4.176;2022-09-09T16:46:31;18.80;99.90
24252;DHT22;12380;51.118;4.176;2022-09-09T16:48:57;19.00;99.90
24252;DHT22;12380;51.118;4.176;2022-09-09T16:51:27;18.90;99.90
24252;DHT22;12380;51.118;4.176;2022-09-09T16:53:53;19.00;99.90
24252;DHT22;12380;51.118;4.176;2022-09-09T16:56:20;19.20;99.90
24252;DHT22;12380;51.118;4.176;2022-09-09T16:58:54;19.10;99.90
24252;DHT22;12380;51.118;4.176;2022-09-09T17:01:23;19.10;99.90
24252;DHT22;12380;51.118;4.176;2022-09-09T17:03:55;19.10;99.90
24252;DHT22;12380;51.118;4.176;2022-09-09T17:06:21;19.00;99.90
24252;DHT22;12380;51.118;4.176;2022-09-09T17:08:48;18.90;99.90
24252;DHT22;12380;51.118;4.176;2022-09-09T17:11:18;18.70;99.90
24252;DHT22;12380;51.118;4.176;2022-09-09T17:13:45;18.70;99.90
24252;DHT22;12380;51.118;4.176;2022-09-09T17:16:11;18.90;99.90
24252;DHT22;12380;51.118;4.176;2022-09-09T17:18:37;19.10;99.90
24252;DHT22;12380;51.118;4.176;2022-09-09T17:21:08;19.10;99.90
24252;DHT22;12380;51.118;4.176;2022-09-09T17:23:36;19.10;99.90
24252;DHT22;12380;51.118;4.176;2022-09-09T17:26:07;19.00;99.90
24252;DHT22;12380;51.118;4.176;2022-09-09T17:28:33;18.90;99.90
24252;DHT22;12380;51.118;4.176;2022-09-09T17:30:58;18.90;99.90
24252;DHT22;12380;51.118;4.176;2022-09-09T17:33:28;19.10;99.90
24252;DHT22;12380;51.118;4.176;2022-09-09T17:36:00;19.30;99.90
24252;DHT22;12380;51.118;4.176;2022-09-09T17:38:26;19.40;99.90
24252;DHT22;12380;51.118;4.176;2022-09-09T17:43:37;19.20;99.90
24252;DHT22;12380;51.118;4.176;2022-09-09T17:46:07;19.10;99.90
24252;DHT22;12380;51.118;4.176;2022-09-09T17:48:32;18.90;99.90
24252;DHT22;12380;51.118;4.176;2022-09-09T17:51:00;18.50;99.90
24252;DHT22;12380;51.118;4.176;2022-09-09T17:53:26;17.90;99.90
24252;DHT22;12380;51.118;4.176;2022-09-09T17:55:52;17.60;99.90
24252;DHT22;12380;51.118;4.176;2022-09-09T17:58:18;17.40;99.90